createdAt,value
2018-05-04T00:00:19.590Z,99568.15
2018-05-04T00:02:51.857Z,99570.10
2018-05-04T00:05:21.618Z,99565.42
2018-05-04T00:07:49.669Z,99575.85
2018-05-04T00:10:19.384Z,99568.36
2018-05-04T00:12:48.445Z,99573.89
2018-05-04T00:15:16.155Z,99575.67
2018-05-04T00:17:46.301Z,99574.56
2018-05-04T00:20:14.306Z,99572.80
2018-05-04T00:22:41.874Z,99575.02
2018-05-04T00:25:13.560Z,99578.66
2018-05-04T00:27:41.358Z,99585.38
2018-05-04T00:30:08.913Z,99587.73
2018-05-04T00:32:37.305Z,99578.58
2018-05-04T00:35:05.245Z,99581.05
2018-05-04T00:37:33.550Z,99573.90
2018-05-04T00:40:01.347Z,99568.38
2018-05-04T00:42:30.140Z,99566.76
2018-05-04T00:44:58.491Z,99567.27
2018-05-04T00:47:26.103Z,99573.41
2018-05-04T00:49:53.940Z,99566.17
2018-05-04T00:52:21.483Z,99570.28
2018-05-04T00:54:49.566Z,99562.95
2018-05-04T00:57:17.357Z,99549.96
2018-05-04T00:59:47.249Z,99549.12
2018-05-04T01:02:15.021Z,99554.28
2018-05-04T01:04:43.701Z,99551.61
2018-05-04T01:07:12.093Z,99544.59
2018-05-04T01:09:40.154Z,99544.83
2018-05-04T01:12:08.451Z,99543.14
2018-05-04T01:14:36.004Z,99541.00
2018-05-04T01:17:03.663Z,99537.80
2018-05-04T01:19:32.028Z,99537.06
2018-05-04T01:21:59.605Z,99531.33
2018-05-04T01:24:27.252Z,99532.66
2018-05-04T01:26:54.858Z,99528.14
2018-05-04T01:29:22.475Z,99540.79
2018-05-04T01:31:50.031Z,99545.67
2018-05-04T01:34:17.589Z,99536.44
2018-05-04T01:36:45.123Z,99538.88
2018-05-04T01:39:12.677Z,99541.26
2018-05-04T01:41:40.204Z,99536.45
2018-05-04T01:44:07.758Z,99543.11
2018-05-04T01:46:35.387Z,99542.20
2018-05-04T01:49:02.935Z,99545.95
2018-05-04T01:51:30.462Z,99540.84
2018-05-04T01:53:58.014Z,99533.97
2018-05-04T01:56:25.546Z,99530.61
2018-05-04T01:58:53.096Z,99540.39
2018-05-04T02:01:20.649Z,99533.22
2018-05-04T02:03:48.200Z,99533.70
2018-05-04T02:06:15.752Z,99544.17
2018-05-04T02:08:44.354Z,99557.36
2018-05-04T02:11:11.930Z,99557.25
2018-05-04T02:13:39.567Z,99555.31
2018-05-04T02:16:07.089Z,99555.16
2018-05-04T02:18:34.693Z,99565.02
2018-05-04T02:21:02.667Z,99557.17
2018-05-04T02:23:30.220Z,99565.27
2018-05-04T02:25:57.774Z,99562.33
2018-05-04T02:28:25.474Z,99567.56
2018-05-04T02:30:53.055Z,99558.25
2018-05-04T02:33:20.895Z,99564.38
2018-05-04T02:35:48.532Z,99562.34
2018-05-04T02:38:16.188Z,99561.52
2018-05-04T02:40:44.579Z,99566.41
2018-05-04T02:43:12.109Z,99560.55
2018-05-04T02:45:39.662Z,99556.25
2018-05-04T02:48:07.198Z,99554.34
2018-05-04T02:50:34.742Z,99548.72
2018-05-04T02:53:02.275Z,99550.91
2018-05-04T02:55:29.845Z,99544.98
2018-05-04T02:57:58.065Z,99544.57
2018-05-04T03:00:27.061Z,99537.27
2018-05-04T03:02:56.797Z,99536.73
2018-05-04T03:05:24.403Z,99535.49
2018-05-04T03:07:51.935Z,99536.17
2018-05-04T03:10:19.561Z,99538.95
2018-05-04T03:12:47.089Z,99542.27
2018-05-04T03:15:14.640Z,99547.72
2018-05-04T03:17:42.195Z,99545.70
2018-05-04T03:20:09.741Z,99540.77
2018-05-04T03:22:37.271Z,99534.50
2018-05-04T03:25:04.941Z,99537.27
2018-05-04T03:27:32.455Z,99529.98
2018-05-04T03:30:00.058Z,99538.70
2018-05-04T03:32:27.581Z,99544.46
2018-05-04T03:34:55.133Z,99546.99
2018-05-04T03:37:22.666Z,99543.87
2018-05-04T03:39:50.217Z,99543.09
2018-05-04T03:42:17.857Z,99543.83
2018-05-04T03:44:46.265Z,99544.28
2018-05-04T03:47:14.819Z,99545.15
2018-05-04T03:49:42.396Z,99538.27
2018-05-04T03:52:09.931Z,99533.41
2018-05-04T03:54:37.501Z,99542.84
2018-05-04T03:57:17.051Z,99546.93
2018-05-04T03:59:56.682Z,99552.55
2018-05-04T04:02:36.228Z,99553.04
2018-05-04T04:05:03.805Z,99545.28
2018-05-04T04:07:31.316Z,99547.38
2018-05-04T04:09:58.862Z,99553.09
2018-05-04T04:12:26.394Z,99557.86
2018-05-04T04:14:54.022Z,99560.79
2018-05-04T04:17:21.582Z,99558.61
2018-05-04T04:19:49.125Z,99563.17
2018-05-04T04:22:16.699Z,99574.05
2018-05-04T04:24:44.904Z,99585.33
2018-05-04T04:27:12.461Z,99593.55
2018-05-04T04:29:40.196Z,99584.88
2018-05-04T04:32:07.738Z,99580.05
2018-05-04T04:34:35.266Z,99578.77
2018-05-04T04:37:02.866Z,99583.22
2018-05-04T04:39:30.544Z,99586.38
2018-05-04T04:42:00.689Z,99599.30
2018-05-04T04:44:28.523Z,99593.56
2018-05-04T04:46:56.075Z,99598.66
2018-05-04T04:49:23.601Z,99599.59
2018-05-04T04:51:51.207Z,99611.53
2018-05-04T04:54:18.727Z,99612.82
2018-05-04T04:56:46.321Z,99613.03
2018-05-04T04:59:13.833Z,99613.88
2018-05-04T05:01:41.441Z,99614.51
2018-05-04T05:04:09.012Z,99613.20
2018-05-04T05:06:36.770Z,99615.00
2018-05-04T05:09:04.369Z,99617.61
2018-05-04T05:11:31.954Z,99620.92
2018-05-04T05:13:59.547Z,99615.82
2018-05-04T05:16:27.105Z,99614.30
2018-05-04T05:18:54.630Z,99612.50
2018-05-04T05:21:22.185Z,99617.26
2018-05-04T05:23:49.732Z,99619.59
2018-05-04T05:26:17.284Z,99613.77
2018-05-04T05:28:44.888Z,99616.14
2018-05-04T05:31:12.741Z,99617.55
2018-05-04T05:33:40.297Z,99622.95
2018-05-04T05:36:07.901Z,99629.17
2018-05-04T05:38:35.552Z,99632.78
2018-05-04T05:41:06.118Z,99625.05
2018-05-04T05:43:33.754Z,99634.02
2018-05-04T05:46:01.304Z,99633.66
2018-05-04T05:48:28.863Z,99632.56
2018-05-04T05:50:56.524Z,99631.11
2018-05-04T05:53:24.062Z,99627.23
2018-05-04T05:55:51.757Z,99624.03
2018-05-04T05:58:20.374Z,99619.31
2018-05-04T06:00:47.892Z,99625.63
2018-05-04T06:03:15.521Z,99630.72
2018-05-04T06:05:43.222Z,99624.09
2018-05-04T06:08:10.878Z,99617.18
2018-05-04T06:10:38.425Z,99614.14
2018-05-04T06:13:05.978Z,99603.71
2018-05-04T06:15:33.553Z,99602.49
2018-05-04T06:18:02.161Z,99600.90
2018-05-04T06:20:29.696Z,99607.20
2018-05-04T06:22:57.243Z,99610.86
2018-05-04T06:25:24.761Z,99615.25
2018-05-04T06:27:52.321Z,99610.16
2018-05-04T06:30:19.917Z,99610.09
2018-05-04T06:32:48.415Z,99610.08
2018-05-04T06:35:15.975Z,99607.31
2018-05-04T06:37:43.530Z,99605.69
2018-05-04T06:40:11.053Z,99606.84
2018-05-04T06:42:38.656Z,99607.80
2018-05-04T06:45:06.214Z,99610.44
2018-05-04T06:47:33.758Z,99603.55
2018-05-04T06:50:01.290Z,99606.32
2018-05-04T06:52:28.893Z,99601.03
2018-05-04T06:54:56.416Z,99607.16
2018-05-04T06:57:23.970Z,99604.66
2018-05-04T06:59:51.507Z,99602.87
2018-05-04T07:02:19.781Z,99609.89
2018-05-04T07:04:48.049Z,99600.91
2018-05-04T07:07:15.594Z,99613.10
2018-05-04T07:09:43.141Z,99615.71
2018-05-04T07:12:10.732Z,99611.76
2018-05-04T07:14:38.283Z,99604.89
2018-05-04T07:17:05.888Z,99611.69
2018-05-04T07:19:33.413Z,99607.52
2018-05-04T07:22:01.022Z,99607.98
2018-05-04T07:24:28.601Z,99606.98
2018-05-04T07:26:56.197Z,99600.52
2018-05-04T07:29:23.823Z,99600.59
2018-05-04T07:31:51.395Z,99607.12
2018-05-04T07:34:19.938Z,99600.70
2018-05-04T07:36:47.455Z,99603.39
2018-05-04T07:39:15.012Z,99606.00
2018-05-04T07:41:42.626Z,99605.12
2018-05-04T07:44:10.212Z,99597.16
2018-05-04T07:46:37.763Z,99601.05
2018-05-04T07:49:05.308Z,99594.72
2018-05-04T07:51:32.819Z,99589.44
2018-05-04T07:54:00.405Z,99592.98
2018-05-04T07:56:36.823Z,99600.85
2018-05-04T07:59:04.450Z,99593.07
2018-05-04T08:01:32.030Z,99589.97
2018-05-04T08:03:59.611Z,99593.66
2018-05-04T08:06:27.129Z,99593.66
2018-05-04T08:08:54.708Z,99591.34
2018-05-04T08:11:22.237Z,99588.81
2018-05-04T08:13:50.113Z,99595.06
2018-05-04T08:16:17.640Z,99594.92
2018-05-04T08:18:45.254Z,99601.23
2018-05-04T08:21:12.813Z,99594.02
2018-05-04T08:23:40.374Z,99597.02
2018-05-04T08:26:07.893Z,99594.56
2018-05-04T08:28:35.458Z,99586.70
2018-05-04T08:31:03.004Z,99593.97
2018-05-04T08:33:30.555Z,99596.10
2018-05-04T08:35:58.113Z,99589.16
2018-05-04T08:38:25.732Z,99589.16
2018-05-04T08:40:53.432Z,99589.81
2018-05-04T08:43:20.866Z,99586.55
2018-05-04T08:45:48.417Z,99580.26
2018-05-04T08:48:16.180Z,99570.31
2018-05-04T08:50:43.617Z,99586.67
2018-05-04T08:53:11.173Z,99583.45
2018-05-04T08:55:38.700Z,99585.70
2018-05-04T08:58:06.278Z,99589.38
2018-05-04T09:00:33.805Z,99592.59
2018-05-04T09:03:01.355Z,99582.94
2018-05-04T09:05:29.057Z,99583.89
2018-05-04T09:07:56.487Z,99579.28
2018-05-04T09:10:24.039Z,99572.97
2018-05-04T09:12:51.860Z,99584.73
2018-05-04T09:15:19.441Z,99587.17
2018-05-04T09:17:46.992Z,99584.23
2018-05-04T09:20:14.563Z,99577.80
2018-05-04T09:22:42.101Z,99573.25
2018-05-04T09:25:09.653Z,99577.47
2018-05-04T09:27:37.227Z,99574.06
2018-05-04T09:30:04.785Z,99578.65
2018-05-04T09:32:32.310Z,99578.06
2018-05-04T09:34:59.861Z,99573.77
2018-05-04T09:37:27.466Z,99576.88
2018-05-04T09:39:55.044Z,99583.52
2018-05-04T09:42:22.585Z,99586.70
2018-05-04T09:44:50.149Z,99587.90
2018-05-04T09:47:17.705Z,99582.73
2018-05-04T09:49:45.375Z,99591.63
2018-05-04T09:52:12.902Z,99593.23
2018-05-04T09:54:40.486Z,99595.38
2018-05-04T09:57:08.045Z,99597.23
2018-05-04T09:59:35.607Z,99587.23
2018-05-04T10:02:03.150Z,99588.34
2018-05-04T10:04:30.738Z,99579.79
2018-05-04T10:07:00.568Z,99579.66
2018-05-04T10:09:31.051Z,99573.76
2018-05-04T10:11:58.799Z,99582.57
2018-05-04T10:14:26.348Z,99576.44
2018-05-04T10:16:55.909Z,99573.73
2018-05-04T10:19:26.206Z,99564.84
2018-05-04T10:21:53.914Z,99569.73
2018-05-04T10:24:24.375Z,99546.86
2018-05-04T10:26:52.383Z,99566.97
2018-05-04T10:29:19.937Z,99557.95
2018-05-04T10:31:50.371Z,99562.32
2018-05-04T10:34:21.382Z,99548.86
2018-05-04T10:36:49.433Z,99553.36
2018-05-04T10:39:20.878Z,99552.14
2018-05-04T10:41:49.923Z,99543.09
2018-05-04T10:44:17.686Z,99547.44
2018-05-04T10:46:47.139Z,99541.99
2018-05-04T10:49:15.376Z,99536.97
2018-05-04T10:51:45.431Z,99535.72
2018-05-04T10:54:15.732Z,99527.25
2018-05-04T10:56:43.263Z,99528.84
2018-05-04T10:59:10.834Z,99535.25
2018-05-04T11:01:38.368Z,99531.01
2018-05-04T11:04:05.912Z,99525.17
2018-05-04T11:06:33.505Z,99531.89
2018-05-04T11:09:01.070Z,99529.34
2018-05-04T11:11:28.625Z,99528.66
2018-05-04T11:13:56.153Z,99532.16
2018-05-04T11:16:23.730Z,99530.07
2018-05-04T11:18:51.757Z,99524.34
2018-05-04T11:21:19.561Z,99518.34
2018-05-04T11:23:47.143Z,99514.13
2018-05-04T11:26:14.689Z,99517.11
2018-05-04T11:28:42.216Z,99509.85
2018-05-04T11:31:09.769Z,99516.67
2018-05-04T11:33:37.299Z,99518.31
2018-05-04T11:36:04.871Z,99520.16
2018-05-04T11:38:32.495Z,99501.80
2018-05-04T11:41:02.625Z,99499.36
2018-05-04T11:43:30.158Z,99506.76
2018-05-04T11:45:57.732Z,99500.44
2018-05-04T11:48:25.659Z,99501.62
2018-05-04T11:50:53.238Z,99498.03
2018-05-04T11:53:20.788Z,99498.02
2018-05-04T11:55:48.337Z,99497.08
2018-05-04T11:58:18.212Z,99496.88
2018-05-04T12:00:48.651Z,99506.84
2018-05-04T12:03:16.746Z,99492.40
2018-05-04T12:05:48.273Z,99507.56
2018-05-04T12:08:16.655Z,99507.73
2018-05-04T12:10:46.805Z,99498.21
2018-05-04T12:13:15.357Z,99504.52
2018-05-04T12:15:43.103Z,99506.39
2018-05-04T12:18:10.641Z,99499.17
2018-05-04T12:20:38.189Z,99516.69
2018-05-04T12:23:05.716Z,99501.31
2018-05-04T12:25:36.923Z,99510.67
2018-05-04T12:28:04.732Z,99506.98
2018-05-04T12:30:34.114Z,99517.02
2018-05-04T12:33:02.882Z,99513.82
2018-05-04T12:35:30.823Z,99512.81
2018-05-04T12:37:58.879Z,99514.54
2018-05-04T12:40:27.393Z,99516.74
2018-05-04T12:42:55.183Z,99519.19
2018-05-04T12:45:23.062Z,99520.67
2018-05-04T12:47:51.505Z,99514.38
2018-05-04T12:50:19.374Z,99509.02
2018-05-04T12:52:46.970Z,99515.58
2018-05-04T12:55:18.216Z,99512.00
2018-05-04T12:57:46.246Z,99503.77
2018-05-04T13:00:15.095Z,99501.18
2018-05-04T13:02:45.946Z,99509.77
2018-05-04T13:05:13.629Z,99514.05
2018-05-04T13:07:41.154Z,99508.30
2018-05-04T13:10:09.908Z,99507.94
2018-05-04T13:12:40.910Z,99508.75
2018-05-04T13:15:09.015Z,99508.95
2018-05-04T13:17:36.869Z,99501.84
2018-05-04T13:20:05.064Z,99501.05
2018-05-04T13:22:33.683Z,99499.58
2018-05-04T13:25:01.400Z,99492.07
2018-05-04T13:27:29.018Z,99495.45
2018-05-04T13:29:57.233Z,99490.72
2018-05-04T13:32:24.806Z,99492.56
2018-05-04T13:34:52.339Z,99489.71
2018-05-04T13:37:19.882Z,99492.89
2018-05-04T13:39:47.456Z,99488.00
2018-05-04T13:42:15.015Z,99491.31
2018-05-04T13:44:42.594Z,99480.39
2018-05-04T13:47:10.142Z,99492.89
2018-05-04T13:49:37.670Z,99485.78
2018-05-04T13:52:05.225Z,99483.42
2018-05-04T13:54:32.751Z,99490.81
2018-05-04T13:57:00.374Z,99483.97
2018-05-04T13:59:27.926Z,99489.71
2018-05-04T14:01:55.529Z,99490.11
2018-05-04T14:04:23.159Z,99489.34
2018-05-04T14:06:50.761Z,99480.88
2018-05-04T14:09:18.285Z,99485.14
2018-05-04T14:11:45.839Z,99480.42
2018-05-04T14:14:13.367Z,99482.16
2018-05-04T14:16:40.946Z,99478.23
2018-05-04T14:19:08.519Z,99471.31
2018-05-04T14:21:36.144Z,99470.27
2018-05-04T14:24:03.675Z,99482.63
2018-05-04T14:26:31.290Z,99475.69
2018-05-04T14:28:58.830Z,99468.58
2018-05-04T14:31:27.409Z,99474.42
2018-05-04T14:33:54.935Z,99470.38
2018-05-04T14:36:22.553Z,99472.96
2018-05-04T14:38:50.113Z,99476.80
2018-05-04T14:41:17.691Z,99473.94
2018-05-04T14:43:45.219Z,99470.67
2018-05-04T14:46:12.765Z,99471.32
2018-05-04T14:48:40.351Z,99477.63
2018-05-04T14:51:07.872Z,99470.97
2018-05-04T14:53:35.452Z,99471.33
2018-05-04T14:56:02.982Z,99471.03
2018-05-04T14:58:30.536Z,99473.48
2018-05-04T15:00:58.118Z,99479.19
2018-05-04T15:03:25.716Z,99481.17
2018-05-04T15:05:53.266Z,99480.30
2018-05-04T15:08:20.842Z,99484.52
2018-05-04T15:10:48.419Z,99487.64
2018-05-04T15:13:15.998Z,99487.70
2018-05-04T15:15:43.511Z,99487.18
2018-05-04T15:18:11.176Z,99488.22
2018-05-04T15:20:38.831Z,99482.95
2018-05-04T15:23:06.400Z,99484.66
2018-05-04T15:25:33.932Z,99488.94
2018-05-04T15:28:01.509Z,99495.89
2018-05-04T15:30:29.068Z,99494.72
2018-05-04T15:32:56.643Z,99490.91
2018-05-04T15:35:24.293Z,99487.88
2018-05-04T15:37:51.848Z,99493.04
2018-05-04T15:40:19.366Z,99489.28
2018-05-04T15:42:46.927Z,99493.53
2018-05-04T15:45:14.473Z,99492.13
2018-05-04T15:47:42.098Z,99490.27
2018-05-04T15:53:09.474Z,99492.55
2018-05-04T15:55:37.023Z,99492.30
2018-05-04T15:58:04.591Z,99492.55
2018-05-04T16:00:32.140Z,99491.31
2018-05-04T16:03:00.290Z,99479.83
2018-05-04T16:05:27.847Z,99495.73
2018-05-04T16:07:55.433Z,99487.30
2018-05-04T16:10:22.958Z,99497.36
2018-05-04T16:12:50.552Z,99499.42
2018-05-04T16:15:18.118Z,99499.88
2018-05-04T16:17:45.681Z,99495.57
2018-05-04T16:20:13.206Z,99492.30
2018-05-04T16:22:40.758Z,99496.31
2018-05-04T16:25:08.313Z,99505.68
2018-05-04T16:27:35.910Z,99507.01
2018-05-04T16:30:03.485Z,99504.26
2018-05-04T16:32:31.312Z,99498.83
2018-05-04T16:34:58.798Z,99505.88
2018-05-04T16:37:26.322Z,99507.17
2018-05-04T16:39:53.873Z,99516.75
2018-05-04T16:42:21.473Z,99516.11
2018-05-04T16:44:49.033Z,99511.78
2018-05-04T16:47:22.427Z,99516.05
2018-05-04T16:49:50.105Z,99513.06
2018-05-04T16:52:17.635Z,99520.50
2018-05-04T16:54:45.242Z,99519.36
2018-05-04T16:57:12.870Z,99531.77
2018-05-04T16:59:40.533Z,99530.48
2018-05-04T17:02:08.069Z,99531.42
2018-05-04T17:04:35.652Z,99529.75
2018-05-04T17:07:03.174Z,99536.19
2018-05-04T17:09:30.727Z,99547.98
2018-05-04T17:11:58.279Z,99537.87
2018-05-04T17:14:25.891Z,99547.70
2018-05-04T17:16:53.404Z,99548.67
2018-05-04T17:19:20.948Z,99553.95
2018-05-04T17:21:48.487Z,99553.23
2018-05-04T17:24:16.139Z,99549.91
2018-05-04T17:26:43.668Z,99561.91
2018-05-04T17:29:11.221Z,99557.44
2018-05-04T17:31:38.741Z,99565.14
2018-05-04T17:34:06.439Z,99565.11
2018-05-04T17:36:33.900Z,99560.70
2018-05-04T17:39:01.598Z,99568.09
2018-05-04T17:41:29.131Z,99571.17
2018-05-04T17:43:56.705Z,99572.78
2018-05-04T17:46:24.262Z,99571.69
2018-05-04T17:48:51.864Z,99567.08
2018-05-04T17:51:19.389Z,99584.95
2018-05-04T17:53:46.976Z,99579.61
2018-05-04T17:56:14.489Z,99580.66
2018-05-04T17:58:42.077Z,99583.27
2018-05-04T18:01:09.625Z,99584.58
2018-05-04T18:03:37.285Z,99585.67
2018-05-04T18:06:05.907Z,99581.63
2018-05-04T18:08:33.530Z,99576.39
2018-05-04T18:11:01.835Z,99581.97
2018-05-04T18:13:29.884Z,99578.76
2018-05-04T18:16:02.450Z,99585.33
2018-05-04T18:18:31.299Z,99595.08
2018-05-04T18:20:58.911Z,99581.61
2018-05-04T18:23:26.396Z,99587.08
2018-05-04T18:25:53.949Z,99592.11
2018-05-04T18:28:21.474Z,99592.58
2018-05-04T18:30:49.053Z,99594.56
2018-05-04T18:33:16.603Z,99589.38
2018-05-04T18:35:44.529Z,99591.17
2018-05-04T18:38:12.058Z,99597.11
2018-05-04T18:40:39.609Z,99608.31
2018-05-04T18:43:07.137Z,99609.18
2018-05-04T18:45:34.694Z,99608.97
2018-05-04T18:48:02.268Z,99617.83
2018-05-04T18:50:29.824Z,99620.11
2018-05-04T18:52:57.398Z,99622.19
2018-05-04T18:55:25.110Z,99630.38
2018-05-04T18:57:52.782Z,99634.91
2018-05-04T19:00:20.579Z,99636.83
2018-05-04T19:02:53.562Z,99642.30
2018-05-04T19:05:21.132Z,99653.19
2018-05-04T19:07:48.687Z,99658.29
2018-05-04T19:10:18.899Z,99655.71
2018-05-04T19:12:46.613Z,99655.03
2018-05-04T19:15:14.337Z,99662.88
2018-05-04T19:17:41.894Z,99659.78
2018-05-04T19:20:09.550Z,99669.59
2018-05-04T19:22:37.227Z,99671.48
2018-05-04T19:25:05.151Z,99676.11
2018-05-04T19:27:32.678Z,99673.49
2018-05-04T19:30:00.231Z,99676.56
2018-05-04T19:32:27.758Z,99680.20
2018-05-04T19:34:55.314Z,99685.53
2018-05-04T19:37:22.837Z,99688.28
2018-05-04T19:39:50.425Z,99696.49
2018-05-04T19:42:17.942Z,99695.58
2018-05-04T19:44:45.566Z,99687.41
2018-05-04T19:47:13.097Z,99689.47
2018-05-04T19:49:40.624Z,99697.59
2018-05-04T19:52:09.995Z,99696.44
2018-05-04T19:54:39.696Z,99704.55
2018-05-04T19:57:11.494Z,99697.88
2018-05-04T19:59:42.183Z,99701.08
2018-05-04T20:02:13.187Z,99703.21
2018-05-04T20:04:43.850Z,99693.17
2018-05-04T20:07:14.386Z,99702.40
2018-05-04T20:09:42.147Z,99703.91
2018-05-04T20:12:09.715Z,99709.77
2018-05-04T20:14:37.262Z,99709.83
2018-05-04T20:17:04.926Z,99710.77
2018-05-04T20:19:33.450Z,99715.75
2018-05-04T20:22:01.068Z,99710.83
2018-05-04T20:24:28.601Z,99709.46
2018-05-04T20:26:56.158Z,99711.85
2018-05-04T20:29:23.687Z,99708.46
2018-05-04T20:31:51.236Z,99713.36
2018-05-04T20:34:18.770Z,99718.23
2018-05-04T20:36:46.425Z,99716.86
2018-05-04T20:39:13.985Z,99711.73
2018-05-04T20:41:41.570Z,99710.92
2018-05-04T20:44:09.133Z,99711.15
2018-05-04T20:46:36.673Z,99713.45
2018-05-04T20:49:04.329Z,99709.71
2018-05-04T20:51:31.900Z,99714.10
2018-05-04T20:53:59.634Z,99710.27
2018-05-04T20:56:27.312Z,99712.05
2018-05-04T20:58:54.931Z,99709.09
2018-05-04T21:01:22.540Z,99710.23
2018-05-04T21:03:50.065Z,99706.09
2018-05-04T21:06:17.624Z,99705.18
2018-05-04T21:08:45.213Z,99706.97
2018-05-04T21:11:12.755Z,99701.75
2018-05-04T21:13:40.544Z,99707.64
2018-05-04T21:16:08.208Z,99708.47
2018-05-04T21:18:35.859Z,99709.95
2018-05-04T21:21:07.375Z,99716.73
2018-05-04T21:23:38.310Z,99717.89
2018-05-04T21:26:09.619Z,99723.55
2018-05-04T21:28:40.727Z,99719.91
2018-05-04T21:31:12.461Z,99718.80
2018-05-04T21:33:46.920Z,99721.08
2018-05-04T21:36:19.250Z,99724.78
2018-05-04T21:38:51.368Z,99736.41
2018-05-04T21:41:20.570Z,99734.17
2018-05-04T21:43:51.182Z,99731.95
2018-05-04T21:46:22.931Z,99735.76
2018-05-04T21:48:54.246Z,99740.01
2018-05-04T21:51:25.389Z,99736.08
2018-05-04T21:53:59.998Z,99731.23
2018-05-04T21:56:31.860Z,99732.50
2018-05-04T21:59:00.090Z,99731.78
2018-05-04T22:01:27.670Z,99729.83
2018-05-04T22:03:57.073Z,99732.13
2018-05-04T22:06:27.062Z,99733.91
2018-05-04T22:08:54.773Z,99730.73
2018-05-04T22:11:23.100Z,99730.84
2018-05-04T22:13:52.361Z,99736.39
2018-05-04T22:16:21.614Z,99733.14
2018-05-04T22:18:51.175Z,99733.39
2018-05-04T22:21:21.632Z,99735.34
2018-05-04T22:23:50.164Z,99732.36
2018-05-04T22:26:19.477Z,99747.52
2018-05-04T22:28:48.137Z,99744.52
2018-05-04T22:31:18.115Z,99746.77
2018-05-04T22:33:46.407Z,99747.86
2018-05-04T22:36:15.449Z,99746.73
2018-05-04T22:38:44.801Z,99743.83
2018-05-04T22:41:13.592Z,99750.87
2018-05-04T22:43:42.851Z,99754.87
2018-05-04T22:46:12.660Z,99755.00
2018-05-04T22:48:41.911Z,99758.80
2018-05-04T22:51:11.293Z,99752.23
2018-05-04T22:53:40.417Z,99762.42
2018-05-04T22:56:10.015Z,99764.41
2018-05-04T22:58:39.542Z,99759.81
2018-05-04T23:01:08.042Z,99764.42
2018-05-04T23:03:37.249Z,99754.27
2018-05-04T23:06:07.957Z,99752.95
2018-05-04T23:08:38.726Z,99757.92
2018-05-04T23:11:06.833Z,99759.73
2018-05-04T23:13:36.383Z,99753.77
2018-05-04T23:16:06.210Z,99754.98
2018-05-04T23:18:35.665Z,99754.88
2018-05-04T23:21:06.025Z,99750.88
2018-05-04T23:23:33.568Z,99755.71
2018-05-04T23:26:02.993Z,99751.02
2018-05-04T23:28:30.617Z,99757.41
2018-05-04T23:30:58.601Z,99759.91
2018-05-04T23:33:26.148Z,99759.57
2018-05-04T23:35:53.694Z,99762.48
2018-05-04T23:38:21.458Z,99770.52
2018-05-04T23:40:49.028Z,99778.28
2018-05-04T23:43:16.586Z,99783.65
2018-05-04T23:45:44.113Z,99777.56
2018-05-04T23:48:11.669Z,99775.47
2018-05-04T23:50:39.193Z,99782.44
2018-05-04T23:53:06.816Z,99783.17
2018-05-04T23:55:34.421Z,99783.47
2018-05-04T23:58:02.028Z,99780.58
